sensor_id;sensor_type;location;lat;lon;timestamp;P1;durP1;ratioP1;P2;durP2;ratioP2
61188;SDS011;47054;39.716;2.904;2023-03-17T00:01:26;142.73;;;33.22;;
61188;SDS011;47054;39.716;2.904;2023-03-17T00:04:11;125.20;;;31.38;;
61188;SDS011;47054;39.716;2.904;2023-03-17T00:06:56;121.18;;;30.73;;
61188;SDS011;47054;39.716;2.904;2023-03-17T00:09:41;118.13;;;30.52;;
61188;SDS011;47054;39.716;2.904;2023-03-17T00:12:25;122.03;;;29.63;;
61188;SDS011;47054;39.716;2.904;2023-03-17T00:15:10;109.60;;;30.00;;
61188;SDS011;47054;39.716;2.904;2023-03-17T00:17:59;116.45;;;30.15;;
61188;SDS011;47054;39.716;2.904;2023-03-17T00:20:43;125.47;;;29.63;;
61188;SDS011;47054;39.716;2.904;2023-03-17T00:23:30;109.75;;;28.60;;
61188;SDS011;47054;39.716;2.904;2023-03-17T00:26:14;112.68;;;27.42;;
61188;SDS011;47054;39.716;2.904;2023-03-17T00:29:00;102.78;;;28.17;;
61188;SDS011;47054;39.716;2.904;2023-03-17T00:31:45;107.68;;;29.17;;
61188;SDS011;47054;39.716;2.904;2023-03-17T00:34:30;105.63;;;28.05;;
61188;SDS011;47054;39.716;2.904;2023-03-17T00:37:14;100.07;;;26.58;;
61188;SDS011;47054;39.716;2.904;2023-03-17T00:40:00;102.30;;;26.10;;
61188;SDS011;47054;39.716;2.904;2023-03-17T00:42:44;92.65;;;26.23;;
61188;SDS011;47054;39.716;2.904;2023-03-17T00:45:29;113.22;;;26.20;;
61188;SDS011;47054;39.716;2.904;2023-03-17T00:48:19;94.15;;;25.40;;
61188;SDS011;47054;39.716;2.904;2023-03-17T00:51:04;88.68;;;23.30;;
61188;SDS011;47054;39.716;2.904;2023-03-17T00:53:49;92.60;;;23.50;;
61188;SDS011;47054;39.716;2.904;2023-03-17T00:56:33;98.22;;;23.92;;
61188;SDS011;47054;39.716;2.904;2023-03-17T00:59:28;102.78;;;25.27;;
61188;SDS011;47054;39.716;2.904;2023-03-17T01:02:20;95.22;;;23.88;;
61188;SDS011;47054;39.716;2.904;2023-03-17T01:05:05;86.72;;;23.52;;
61188;SDS011;47054;39.716;2.904;2023-03-17T01:07:52;82.43;;;22.15;;
61188;SDS011;47054;39.716;2.904;2023-03-17T01:10:38;80.55;;;20.80;;
61188;SDS011;47054;39.716;2.904;2023-03-17T01:13:22;72.22;;;21.23;;
61188;SDS011;47054;39.716;2.904;2023-03-17T01:16:08;83.18;;;21.38;;
61188;SDS011;47054;39.716;2.904;2023-03-17T01:18:54;71.65;;;20.02;;
61188;SDS011;47054;39.716;2.904;2023-03-17T01:21:40;71.30;;;19.65;;
61188;SDS011;47054;39.716;2.904;2023-03-17T01:24:25;72.80;;;19.90;;
61188;SDS011;47054;39.716;2.904;2023-03-17T01:27:10;77.00;;;20.70;;
61188;SDS011;47054;39.716;2.904;2023-03-17T01:29:55;80.78;;;20.40;;
61188;SDS011;47054;39.716;2.904;2023-03-17T01:32:39;75.05;;;19.23;;
61188;SDS011;47054;39.716;2.904;2023-03-17T01:35:26;64.88;;;18.73;;
61188;SDS011;47054;39.716;2.904;2023-03-17T01:38:15;66.35;;;19.98;;
61188;SDS011;47054;39.716;2.904;2023-03-17T01:41:00;65.78;;;19.38;;
61188;SDS011;47054;39.716;2.904;2023-03-17T01:43:46;58.00;;;18.20;;
61188;SDS011;47054;39.716;2.904;2023-03-17T01:46:34;57.75;;;17.98;;
61188;SDS011;47054;39.716;2.904;2023-03-17T01:49:21;55.22;;;16.63;;
61188;SDS011;47054;39.716;2.904;2023-03-17T01:52:16;66.22;;;17.42;;
61188;SDS011;47054;39.716;2.904;2023-03-17T01:55:06;64.57;;;17.80;;
61188;SDS011;47054;39.716;2.904;2023-03-17T01:57:59;58.28;;;17.50;;
61188;SDS011;47054;39.716;2.904;2023-03-17T02:00:43;57.50;;;17.42;;
61188;SDS011;47054;39.716;2.904;2023-03-17T02:03:30;60.95;;;16.30;;
61188;SDS011;47054;39.716;2.904;2023-03-17T02:06:15;63.53;;;16.58;;
61188;SDS011;47054;39.716;2.904;2023-03-17T02:09:00;60.72;;;16.48;;
61188;SDS011;47054;39.716;2.904;2023-03-17T02:11:45;53.78;;;16.30;;
61188;SDS011;47054;39.716;2.904;2023-03-17T02:14:30;64.75;;;16.73;;
61188;SDS011;47054;39.716;2.904;2023-03-17T02:17:14;53.17;;;15.70;;
61188;SDS011;47054;39.716;2.904;2023-03-17T02:23:05;50.15;;;14.82;;
61188;SDS011;47054;39.716;2.904;2023-03-17T02:25:51;50.95;;;14.52;;
61188;SDS011;47054;39.716;2.904;2023-03-17T02:28:37;43.40;;;14.50;;
61188;SDS011;47054;39.716;2.904;2023-03-17T02:31:23;43.60;;;13.93;;
61188;SDS011;47054;39.716;2.904;2023-03-17T02:34:10;50.28;;;15.20;;
61188;SDS011;47054;39.716;2.904;2023-03-17T02:36:54;46.53;;;14.38;;
61188;SDS011;47054;39.716;2.904;2023-03-17T02:39:40;42.75;;;13.88;;
61188;SDS011;47054;39.716;2.904;2023-03-17T02:42:26;45.55;;;13.68;;
61188;SDS011;47054;39.716;2.904;2023-03-17T02:45:11;43.72;;;13.55;;
61188;SDS011;47054;39.716;2.904;2023-03-17T02:47:57;44.22;;;14.05;;
61188;SDS011;47054;39.716;2.904;2023-03-17T02:50:43;39.40;;;12.63;;
61188;SDS011;47054;39.716;2.904;2023-03-17T02:53:28;38.75;;;12.13;;
61188;SDS011;47054;39.716;2.904;2023-03-17T02:56:14;42.15;;;12.45;;
61188;SDS011;47054;39.716;2.904;2023-03-17T02:58:58;44.38;;;12.57;;
61188;SDS011;47054;39.716;2.904;2023-03-17T03:01:43;40.30;;;12.48;;
61188;SDS011;47054;39.716;2.904;2023-03-17T03:04:28;33.97;;;12.05;;
61188;SDS011;47054;39.716;2.904;2023-03-17T03:07:13;34.50;;;11.77;;
61188;SDS011;47054;39.716;2.904;2023-03-17T03:09:59;36.78;;;12.45;;
61188;SDS011;47054;39.716;2.904;2023-03-17T03:12:45;39.05;;;11.85;;
61188;SDS011;47054;39.716;2.904;2023-03-17T03:15:30;49.90;;;12.77;;
61188;SDS011;47054;39.716;2.904;2023-03-17T03:18:16;33.60;;;11.18;;
61188;SDS011;47054;39.716;2.904;2023-03-17T03:21:00;38.33;;;10.77;;
61188;SDS011;47054;39.716;2.904;2023-03-17T03:23:47;35.33;;;10.77;;
61188;SDS011;47054;39.716;2.904;2023-03-17T03:26:32;34.92;;;11.18;;
61188;SDS011;47054;39.716;2.904;2023-03-17T03:29:17;39.65;;;11.82;;
61188;SDS011;47054;39.716;2.904;2023-03-17T03:32:02;33.35;;;10.40;;
61188;SDS011;47054;39.716;2.904;2023-03-17T03:34:46;37.45;;;10.38;;
61188;SDS011;47054;39.716;2.904;2023-03-17T03:37:31;38.80;;;10.82;;
61188;SDS011;47054;39.716;2.904;2023-03-17T03:40:15;29.95;;;10.25;;
61188;SDS011;47054;39.716;2.904;2023-03-17T03:43:00;33.50;;;9.70;;
61188;SDS011;47054;39.716;2.904;2023-03-17T03:45:45;36.10;;;9.77;;
61188;SDS011;47054;39.716;2.904;2023-03-17T03:48:31;29.83;;;9.63;;
61188;SDS011;47054;39.716;2.904;2023-03-17T03:51:16;30.23;;;9.20;;
61188;SDS011;47054;39.716;2.904;2023-03-17T03:54:01;33.22;;;9.93;;
61188;SDS011;47054;39.716;2.904;2023-03-17T03:56:46;29.65;;;9.32;;
61188;SDS011;47054;39.716;2.904;2023-03-17T03:59:30;28.08;;;9.32;;
61188;SDS011;47054;39.716;2.904;2023-03-17T04:02:15;23.48;;;8.55;;
61188;SDS011;47054;39.716;2.904;2023-03-17T04:05:00;30.80;;;9.85;;
61188;SDS011;47054;39.716;2.904;2023-03-17T04:07:44;25.52;;;9.30;;
61188;SDS011;47054;39.716;2.904;2023-03-17T04:10:31;25.85;;;8.15;;
61188;SDS011;47054;39.716;2.904;2023-03-17T04:13:16;30.63;;;8.80;;
61188;SDS011;47054;39.716;2.904;2023-03-17T04:16:02;27.10;;;8.60;;
61188;SDS011;47054;39.716;2.904;2023-03-17T04:18:46;23.95;;;8.57;;
61188;SDS011;47054;39.716;2.904;2023-03-17T04:21:31;26.88;;;8.23;;
61188;SDS011;47054;39.716;2.904;2023-03-17T04:24:16;26.02;;;7.82;;
61188;SDS011;47054;39.716;2.904;2023-03-17T04:27:00;27.02;;;8.38;;
61188;SDS011;47054;39.716;2.904;2023-03-17T04:29:45;25.48;;;7.95;;
61188;SDS011;47054;39.716;2.904;2023-03-17T04:32:31;23.75;;;8.70;;
61188;SDS011;47054;39.716;2.904;2023-03-17T04:35:17;23.05;;;7.95;;
61188;SDS011;47054;39.716;2.904;2023-03-17T04:38:03;25.80;;;7.80;;
61188;SDS011;47054;39.716;2.904;2023-03-17T04:40:48;23.70;;;7.38;;
61188;SDS011;47054;39.716;2.904;2023-03-17T04:43:33;20.20;;;6.95;;
61188;SDS011;47054;39.716;2.904;2023-03-17T04:46:18;22.38;;;7.18;;
61188;SDS011;47054;39.716;2.904;2023-03-17T04:49:03;24.23;;;7.15;;
61188;SDS011;47054;39.716;2.904;2023-03-17T04:51:48;21.33;;;7.78;;
61188;SDS011;47054;39.716;2.904;2023-03-17T04:54:33;22.88;;;7.68;;
61188;SDS011;47054;39.716;2.904;2023-03-17T04:57:17;21.80;;;7.75;;
61188;SDS011;47054;39.716;2.904;2023-03-17T05:00:06;20.50;;;6.70;;
61188;SDS011;47054;39.716;2.904;2023-03-17T05:02:51;20.75;;;6.68;;
61188;SDS011;47054;39.716;2.904;2023-03-17T05:05:36;18.63;;;6.60;;
61188;SDS011;47054;39.716;2.904;2023-03-17T05:08:21;17.95;;;6.10;;
61188;SDS011;47054;39.716;2.904;2023-03-17T05:11:07;20.42;;;7.07;;
61188;SDS011;47054;39.716;2.904;2023-03-17T05:13:52;19.30;;;6.45;;
61188;SDS011;47054;39.716;2.904;2023-03-17T05:16:37;19.45;;;6.50;;
61188;SDS011;47054;39.716;2.904;2023-03-17T05:19:21;19.10;;;6.43;;
61188;SDS011;47054;39.716;2.904;2023-03-17T05:22:06;20.27;;;6.40;;
61188;SDS011;47054;39.716;2.904;2023-03-17T05:24:51;18.58;;;6.53;;
61188;SDS011;47054;39.716;2.904;2023-03-17T05:27:37;19.00;;;6.70;;
61188;SDS011;47054;39.716;2.904;2023-03-17T05:30:22;18.58;;;6.63;;
61188;SDS011;47054;39.716;2.904;2023-03-17T05:33:08;18.70;;;6.32;;
61188;SDS011;47054;39.716;2.904;2023-03-17T05:35:53;22.77;;;6.63;;
61188;SDS011;47054;39.716;2.904;2023-03-17T05:38:38;20.73;;;7.63;;
61188;SDS011;47054;39.716;2.904;2023-03-17T05:41:22;18.75;;;6.75;;
61188;SDS011;47054;39.716;2.904;2023-03-17T05:44:07;18.13;;;6.72;;
61188;SDS011;47054;39.716;2.904;2023-03-17T05:46:52;18.35;;;6.45;;
61188;SDS011;47054;39.716;2.904;2023-03-17T05:49:38;21.35;;;6.28;;
61188;SDS011;47054;39.716;2.904;2023-03-17T05:52:23;17.92;;;6.28;;
61188;SDS011;47054;39.716;2.904;2023-03-17T05:55:08;16.30;;;6.55;;
61188;SDS011;47054;39.716;2.904;2023-03-17T05:57:53;20.50;;;6.53;;
61188;SDS011;47054;39.716;2.904;2023-03-17T06:00:37;19.52;;;6.28;;
61188;SDS011;47054;39.716;2.904;2023-03-17T06:03:22;18.92;;;5.90;;
61188;SDS011;47054;39.716;2.904;2023-03-17T06:06:07;14.77;;;5.70;;
61188;SDS011;47054;39.716;2.904;2023-03-17T06:08:52;17.30;;;5.65;;
61188;SDS011;47054;39.716;2.904;2023-03-17T06:11:37;17.95;;;6.03;;
61188;SDS011;47054;39.716;2.904;2023-03-17T06:14:22;17.65;;;5.78;;
61188;SDS011;47054;39.716;2.904;2023-03-17T06:17:06;14.52;;;5.63;;
61188;SDS011;47054;39.716;2.904;2023-03-17T06:19:51;19.15;;;5.70;;
61188;SDS011;47054;39.716;2.904;2023-03-17T06:22:36;15.45;;;5.80;;
61188;SDS011;47054;39.716;2.904;2023-03-17T06:25:21;15.27;;;5.38;;
61188;SDS011;47054;39.716;2.904;2023-03-17T06:28:05;17.90;;;5.82;;
61188;SDS011;47054;39.716;2.904;2023-03-17T06:30:49;15.45;;;5.28;;
61188;SDS011;47054;39.716;2.904;2023-03-17T06:33:34;16.23;;;5.60;;
61188;SDS011;47054;39.716;2.904;2023-03-17T06:36:19;14.35;;;5.60;;
61188;SDS011;47054;39.716;2.904;2023-03-17T06:39:03;16.73;;;5.05;;
61188;SDS011;47054;39.716;2.904;2023-03-17T06:41:49;18.25;;;5.80;;
61188;SDS011;47054;39.716;2.904;2023-03-17T06:44:34;15.70;;;5.82;;
61188;SDS011;47054;39.716;2.904;2023-03-17T06:47:20;17.73;;;6.15;;
61188;SDS011;47054;39.716;2.904;2023-03-17T06:50:06;20.77;;;6.75;;
61188;SDS011;47054;39.716;2.904;2023-03-17T06:52:52;15.75;;;6.15;;
61188;SDS011;47054;39.716;2.904;2023-03-17T06:55:37;18.77;;;6.50;;
61188;SDS011;47054;39.716;2.904;2023-03-17T06:58:21;16.77;;;6.40;;
61188;SDS011;47054;39.716;2.904;2023-03-17T07:01:07;15.98;;;5.85;;
61188;SDS011;47054;39.716;2.904;2023-03-17T07:03:52;15.20;;;5.60;;
61188;SDS011;47054;39.716;2.904;2023-03-17T07:06:37;16.55;;;6.63;;
61188;SDS011;47054;39.716;2.904;2023-03-17T07:09:22;18.98;;;6.97;;
61188;SDS011;47054;39.716;2.904;2023-03-17T07:12:07;19.70;;;6.88;;
61188;SDS011;47054;39.716;2.904;2023-03-17T07:14:53;21.08;;;7.22;;
61188;SDS011;47054;39.716;2.904;2023-03-17T07:17:38;15.07;;;6.03;;
61188;SDS011;47054;39.716;2.904;2023-03-17T07:20:23;14.07;;;6.47;;
61188;SDS011;47054;39.716;2.904;2023-03-17T07:23:09;18.50;;;6.03;;
61188;SDS011;47054;39.716;2.904;2023-03-17T07:26:02;20.83;;;6.93;;
61188;SDS011;47054;39.716;2.904;2023-03-17T07:28:47;16.63;;;5.63;;
61188;SDS011;47054;39.716;2.904;2023-03-17T07:31:31;16.35;;;5.90;;
61188;SDS011;47054;39.716;2.904;2023-03-17T07:34:17;17.83;;;6.55;;
61188;SDS011;47054;39.716;2.904;2023-03-17T07:37:02;14.32;;;6.13;;
61188;SDS011;47054;39.716;2.904;2023-03-17T07:39:47;20.58;;;6.68;;
61188;SDS011;47054;39.716;2.904;2023-03-17T07:42:32;22.23;;;5.53;;
61188;SDS011;47054;39.716;2.904;2023-03-17T07:45:17;15.52;;;5.82;;
61188;SDS011;47054;39.716;2.904;2023-03-17T07:48:02;15.85;;;5.45;;
61188;SDS011;47054;39.716;2.904;2023-03-17T07:50:49;13.80;;;5.10;;
61188;SDS011;47054;39.716;2.904;2023-03-17T07:53:34;16.75;;;6.03;;
61188;SDS011;47054;39.716;2.904;2023-03-17T07:56:19;13.00;;;5.22;;
61188;SDS011;47054;39.716;2.904;2023-03-17T07:59:05;17.13;;;5.75;;
61188;SDS011;47054;39.716;2.904;2023-03-17T08:01:53;15.77;;;6.10;;
61188;SDS011;47054;39.716;2.904;2023-03-17T08:04:39;21.48;;;6.53;;
61188;SDS011;47054;39.716;2.904;2023-03-17T08:07:24;15.88;;;5.90;;
61188;SDS011;47054;39.716;2.904;2023-03-17T08:10:09;20.45;;;5.70;;
61188;SDS011;47054;39.716;2.904;2023-03-17T08:12:56;15.82;;;5.82;;
61188;SDS011;47054;39.716;2.904;2023-03-17T08:15:40;16.77;;;5.57;;
61188;SDS011;47054;39.716;2.904;2023-03-17T08:18:26;13.50;;;5.30;;
61188;SDS011;47054;39.716;2.904;2023-03-17T08:21:11;16.73;;;5.80;;
61188;SDS011;47054;39.716;2.904;2023-03-17T08:23:57;14.45;;;5.47;;
61188;SDS011;47054;39.716;2.904;2023-03-17T08:26:41;17.38;;;5.70;;
61188;SDS011;47054;39.716;2.904;2023-03-17T08:29:26;16.90;;;6.10;;
61188;SDS011;47054;39.716;2.904;2023-03-17T08:32:11;20.33;;;6.40;;
61188;SDS011;47054;39.716;2.904;2023-03-17T08:34:57;14.82;;;4.80;;
61188;SDS011;47054;39.716;2.904;2023-03-17T08:37:42;13.13;;;5.30;;
61188;SDS011;47054;39.716;2.904;2023-03-17T08:40:27;13.00;;;5.63;;
61188;SDS011;47054;39.716;2.904;2023-03-17T08:43:12;11.00;;;4.93;;
61188;SDS011;47054;39.716;2.904;2023-03-17T08:45:59;13.85;;;5.00;;
61188;SDS011;47054;39.716;2.904;2023-03-17T08:48:48;15.05;;;5.40;;
61188;SDS011;47054;39.716;2.904;2023-03-17T08:51:35;15.77;;;5.13;;
61188;SDS011;47054;39.716;2.904;2023-03-17T08:54:21;15.27;;;4.90;;
61188;SDS011;47054;39.716;2.904;2023-03-17T08:57:06;10.85;;;4.90;;
61188;SDS011;47054;39.716;2.904;2023-03-17T08:59:51;15.65;;;4.68;;
61188;SDS011;47054;39.716;2.904;2023-03-17T09:02:37;16.42;;;4.78;;
61188;SDS011;47054;39.716;2.904;2023-03-17T09:05:22;14.43;;;4.90;;
61188;SDS011;47054;39.716;2.904;2023-03-17T09:08:07;11.27;;;4.47;;
61188;SDS011;47054;39.716;2.904;2023-03-17T09:10:53;14.10;;;4.22;;
61188;SDS011;47054;39.716;2.904;2023-03-17T09:13:38;11.15;;;4.00;;
61188;SDS011;47054;39.716;2.904;2023-03-17T09:16:24;19.20;;;4.80;;
61188;SDS011;47054;39.716;2.904;2023-03-17T09:19:10;11.13;;;4.28;;
61188;SDS011;47054;39.716;2.904;2023-03-17T09:21:55;11.55;;;4.18;;
61188;SDS011;47054;39.716;2.904;2023-03-17T09:24:40;12.00;;;4.30;;
61188;SDS011;47054;39.716;2.904;2023-03-17T09:27:26;16.42;;;5.40;;
61188;SDS011;47054;39.716;2.904;2023-03-17T09:30:10;11.20;;;3.80;;
61188;SDS011;47054;39.716;2.904;2023-03-17T09:32:56;10.65;;;3.67;;
61188;SDS011;47054;39.716;2.904;2023-03-17T09:35:42;11.43;;;3.80;;
61188;SDS011;47054;39.716;2.904;2023-03-17T09:38:27;10.95;;;3.50;;
61188;SDS011;47054;39.716;2.904;2023-03-17T09:44:05;9.60;;;3.30;;
61188;SDS011;47054;39.716;2.904;2023-03-17T09:49:56;9.35;;;3.63;;
61188;SDS011;47054;39.716;2.904;2023-03-17T09:52:44;9.13;;;3.58;;
61188;SDS011;47054;39.716;2.904;2023-03-17T09:55:30;13.38;;;3.88;;
61188;SDS011;47054;39.716;2.904;2023-03-17T09:58:19;9.95;;;3.80;;
61188;SDS011;47054;39.716;2.904;2023-03-17T10:01:09;10.43;;;3.50;;
61188;SDS011;47054;39.716;2.904;2023-03-17T10:03:55;10.35;;;3.67;;
61188;SDS011;47054;39.716;2.904;2023-03-17T10:06:44;11.55;;;3.70;;
61188;SDS011;47054;39.716;2.904;2023-03-17T10:15:49;11.20;;;3.40;;
61188;SDS011;47054;39.716;2.904;2023-03-17T10:18:49;8.98;;;3.17;;
61188;SDS011;47054;39.716;2.904;2023-03-17T10:21:40;8.25;;;3.20;;
61188;SDS011;47054;39.716;2.904;2023-03-17T10:24:31;8.02;;;3.13;;
61188;SDS011;47054;39.716;2.904;2023-03-17T10:27:18;11.57;;;3.45;;
61188;SDS011;47054;39.716;2.904;2023-03-17T10:30:04;8.88;;;2.97;;
61188;SDS011;47054;39.716;2.904;2023-03-17T10:32:55;7.13;;;2.78;;
61188;SDS011;47054;39.716;2.904;2023-03-17T10:35:43;13.02;;;3.75;;
61188;SDS011;47054;39.716;2.904;2023-03-17T10:38:28;11.50;;;3.60;;
61188;SDS011;47054;39.716;2.904;2023-03-17T10:41:12;11.18;;;3.10;;
61188;SDS011;47054;39.716;2.904;2023-03-17T10:43:59;9.50;;;2.72;;
61188;SDS011;47054;39.716;2.904;2023-03-17T10:46:50;9.63;;;2.92;;
61188;SDS011;47054;39.716;2.904;2023-03-17T10:49:37;9.95;;;3.15;;
61188;SDS011;47054;39.716;2.904;2023-03-17T10:52:24;10.45;;;3.17;;
61188;SDS011;47054;39.716;2.904;2023-03-17T10:55:16;9.27;;;3.10;;
61188;SDS011;47054;39.716;2.904;2023-03-17T11:01:35;8.13;;;2.97;;
61188;SDS011;47054;39.716;2.904;2023-03-17T11:07:15;9.02;;;3.13;;
61188;SDS011;47054;39.716;2.904;2023-03-17T11:10:02;8.65;;;2.85;;
61188;SDS011;47054;39.716;2.904;2023-03-17T11:12:58;7.32;;;2.92;;
61188;SDS011;47054;39.716;2.904;2023-03-17T11:15:48;8.32;;;2.80;;
61188;SDS011;47054;39.716;2.904;2023-03-17T11:18:39;7.70;;;2.90;;
61188;SDS011;47054;39.716;2.904;2023-03-17T11:24:23;7.15;;;2.78;;
61188;SDS011;47054;39.716;2.904;2023-03-17T11:27:22;11.88;;;3.03;;
61188;SDS011;47054;39.716;2.904;2023-03-17T11:30:29;9.95;;;2.42;;
61188;SDS011;47054;39.716;2.904;2023-03-17T11:48:15;11.52;;;2.38;;
61188;SDS011;47054;39.716;2.904;2023-03-17T12:00:40;14.02;;;3.00;;
61188;SDS011;47054;39.716;2.904;2023-03-17T12:06:45;5.63;;;2.10;;
61188;SDS011;47054;39.716;2.904;2023-03-17T12:09:40;7.90;;;2.50;;
61188;SDS011;47054;39.716;2.904;2023-03-17T12:12:31;7.95;;;2.55;;
61188;SDS011;47054;39.716;2.904;2023-03-17T12:15:24;9.10;;;2.55;;
61188;SDS011;47054;39.716;2.904;2023-03-17T12:21:26;6.70;;;2.08;;
61188;SDS011;47054;39.716;2.904;2023-03-17T12:24:18;6.88;;;2.15;;
61188;SDS011;47054;39.716;2.904;2023-03-17T12:27:23;7.13;;;1.92;;
61188;SDS011;47054;39.716;2.904;2023-03-17T12:36:31;6.13;;;2.53;;
61188;SDS011;47054;39.716;2.904;2023-03-17T12:39:26;5.45;;;2.08;;
61188;SDS011;47054;39.716;2.904;2023-03-17T12:53:49;8.55;;;1.83;;
61188;SDS011;47054;39.716;2.904;2023-03-17T12:56:35;6.18;;;2.10;;
61188;SDS011;47054;39.716;2.904;2023-03-17T12:59:26;5.28;;;2.03;;
61188;SDS011;47054;39.716;2.904;2023-03-17T13:04:58;11.20;;;2.30;;
61188;SDS011;47054;39.716;2.904;2023-03-17T13:07:50;5.80;;;1.88;;
61188;SDS011;47054;39.716;2.904;2023-03-17T13:16:33;5.35;;;2.13;;
61188;SDS011;47054;39.716;2.904;2023-03-17T13:19:24;9.95;;;2.25;;
61188;SDS011;47054;39.716;2.904;2023-03-17T13:28:38;7.22;;;2.38;;
61188;SDS011;47054;39.716;2.904;2023-03-17T13:34:14;5.07;;;1.80;;
61188;SDS011;47054;39.716;2.904;2023-03-17T13:37:02;5.22;;;1.80;;
61188;SDS011;47054;39.716;2.904;2023-03-17T13:52:15;7.47;;;2.00;;
61188;SDS011;47054;39.716;2.904;2023-03-17T14:00:58;5.38;;;1.80;;
61188;SDS011;47054;39.716;2.904;2023-03-17T14:03:48;11.45;;;2.00;;
61188;SDS011;47054;39.716;2.904;2023-03-17T14:06:35;5.75;;;1.65;;
61188;SDS011;47054;39.716;2.904;2023-03-17T14:12:20;4.22;;;1.70;;
61188;SDS011;47054;39.716;2.904;2023-03-17T14:15:15;7.78;;;2.08;;
61188;SDS011;47054;39.716;2.904;2023-03-17T14:21:00;5.25;;;1.90;;
61188;SDS011;47054;39.716;2.904;2023-03-17T14:23:54;6.57;;;1.88;;
61188;SDS011;47054;39.716;2.904;2023-03-17T14:26:40;5.38;;;1.92;;
61188;SDS011;47054;39.716;2.904;2023-03-17T14:29:28;5.15;;;1.70;;
61188;SDS011;47054;39.716;2.904;2023-03-17T14:32:16;6.03;;;1.70;;
61188;SDS011;47054;39.716;2.904;2023-03-17T14:35:02;5.32;;;1.60;;
61188;SDS011;47054;39.716;2.904;2023-03-17T14:37:47;6.50;;;1.85;;
61188;SDS011;47054;39.716;2.904;2023-03-17T14:40:32;6.88;;;1.60;;
61188;SDS011;47054;39.716;2.904;2023-03-17T14:43:19;10.88;;;1.90;;
61188;SDS011;47054;39.716;2.904;2023-03-17T14:46:05;6.35;;;1.52;;
61188;SDS011;47054;39.716;2.904;2023-03-17T14:49:17;3.80;;;1.63;;
61188;SDS011;47054;39.716;2.904;2023-03-17T14:52:04;3.95;;;1.33;;
61188;SDS011;47054;39.716;2.904;2023-03-17T14:54:50;9.23;;;1.80;;
61188;SDS011;47054;39.716;2.904;2023-03-17T14:57:36;6.97;;;1.60;;
61188;SDS011;47054;39.716;2.904;2023-03-17T15:00:32;7.40;;;1.58;;
61188;SDS011;47054;39.716;2.904;2023-03-17T15:03:20;6.47;;;1.90;;
61188;SDS011;47054;39.716;2.904;2023-03-17T15:06:24;7.85;;;1.65;;
61188;SDS011;47054;39.716;2.904;2023-03-17T15:09:18;7.50;;;1.52;;
61188;SDS011;47054;39.716;2.904;2023-03-17T15:12:17;7.57;;;2.03;;
61188;SDS011;47054;39.716;2.904;2023-03-17T15:15:03;7.78;;;2.15;;
61188;SDS011;47054;39.716;2.904;2023-03-17T15:17:54;4.38;;;1.50;;
61188;SDS011;47054;39.716;2.904;2023-03-17T15:20:41;5.82;;;1.55;;
61188;SDS011;47054;39.716;2.904;2023-03-17T15:23:28;6.35;;;1.52;;
61188;SDS011;47054;39.716;2.904;2023-03-17T15:26:28;12.18;;;2.38;;
61188;SDS011;47054;39.716;2.904;2023-03-17T15:29:15;5.40;;;1.70;;
61188;SDS011;47054;39.716;2.904;2023-03-17T15:32:05;4.15;;;1.40;;
61188;SDS011;47054;39.716;2.904;2023-03-17T15:34:58;7.70;;;1.58;;
61188;SDS011;47054;39.716;2.904;2023-03-17T15:37:42;9.05;;;1.40;;
61188;SDS011;47054;39.716;2.904;2023-03-17T15:40:27;6.28;;;1.50;;
61188;SDS011;47054;39.716;2.904;2023-03-17T15:43:15;7.10;;;1.90;;
61188;SDS011;47054;39.716;2.904;2023-03-17T15:46:04;5.43;;;1.40;;
61188;SDS011;47054;39.716;2.904;2023-03-17T15:48:51;8.68;;;1.58;;
61188;SDS011;47054;39.716;2.904;2023-03-17T15:51:36;9.00;;;1.60;;
61188;SDS011;47054;39.716;2.904;2023-03-17T15:54:21;5.18;;;1.60;;
61188;SDS011;47054;39.716;2.904;2023-03-17T15:57:08;5.43;;;1.60;;
61188;SDS011;47054;39.716;2.904;2023-03-17T15:59:55;5.90;;;1.67;;
61188;SDS011;47054;39.716;2.904;2023-03-17T16:02:39;5.93;;;1.88;;
61188;SDS011;47054;39.716;2.904;2023-03-17T16:05:26;6.88;;;1.60;;
61188;SDS011;47054;39.716;2.904;2023-03-17T16:08:14;6.82;;;1.42;;
61188;SDS011;47054;39.716;2.904;2023-03-17T16:11:00;4.65;;;1.48;;
61188;SDS011;47054;39.716;2.904;2023-03-17T16:13:45;6.28;;;1.90;;
61188;SDS011;47054;39.716;2.904;2023-03-17T16:16:34;7.53;;;1.65;;
61188;SDS011;47054;39.716;2.904;2023-03-17T16:19:20;5.13;;;1.38;;
61188;SDS011;47054;39.716;2.904;2023-03-17T16:22:14;5.85;;;1.85;;
61188;SDS011;47054;39.716;2.904;2023-03-17T16:25:24;8.15;;;1.50;;
61188;SDS011;47054;39.716;2.904;2023-03-17T16:28:16;6.47;;;1.83;;
61188;SDS011;47054;39.716;2.904;2023-03-17T16:31:07;5.82;;;1.25;;
61188;SDS011;47054;39.716;2.904;2023-03-17T16:33:59;3.17;;;1.20;;
61188;SDS011;47054;39.716;2.904;2023-03-17T16:36:44;8.70;;;1.67;;
61188;SDS011;47054;39.716;2.904;2023-03-17T16:39:29;6.88;;;1.48;;
61188;SDS011;47054;39.716;2.904;2023-03-17T16:42:22;6.05;;;1.58;;
61188;SDS011;47054;39.716;2.904;2023-03-17T16:45:12;6.05;;;1.65;;
61188;SDS011;47054;39.716;2.904;2023-03-17T16:48:00;2.90;;;1.20;;
61188;SDS011;47054;39.716;2.904;2023-03-17T16:50:46;6.72;;;1.50;;
61188;SDS011;47054;39.716;2.904;2023-03-17T16:53:31;5.90;;;1.45;;
61188;SDS011;47054;39.716;2.904;2023-03-17T16:56:17;5.28;;;1.30;;
61188;SDS011;47054;39.716;2.904;2023-03-17T16:59:03;3.95;;;1.40;;
61188;SDS011;47054;39.716;2.904;2023-03-17T17:01:49;5.15;;;1.40;;
61188;SDS011;47054;39.716;2.904;2023-03-17T17:04:35;4.22;;;1.50;;
61188;SDS011;47054;39.716;2.904;2023-03-17T17:07:21;8.20;;;1.40;;
61188;SDS011;47054;39.716;2.904;2023-03-17T17:10:05;9.35;;;1.40;;
61188;SDS011;47054;39.716;2.904;2023-03-17T17:12:51;5.45;;;1.50;;
61188;SDS011;47054;39.716;2.904;2023-03-17T17:15:36;5.28;;;1.65;;
61188;SDS011;47054;39.716;2.904;2023-03-17T17:18:22;7.10;;;1.40;;
61188;SDS011;47054;39.716;2.904;2023-03-17T17:21:08;6.70;;;1.45;;
61188;SDS011;47054;39.716;2.904;2023-03-17T17:23:53;3.60;;;1.10;;
61188;SDS011;47054;39.716;2.904;2023-03-17T17:26:38;4.97;;;1.33;;
61188;SDS011;47054;39.716;2.904;2023-03-17T17:29:23;3.63;;;1.30;;
61188;SDS011;47054;39.716;2.904;2023-03-17T17:32:08;4.95;;;1.40;;
61188;SDS011;47054;39.716;2.904;2023-03-17T17:34:53;9.27;;;1.65;;
61188;SDS011;47054;39.716;2.904;2023-03-17T17:37:38;5.82;;;1.80;;
61188;SDS011;47054;39.716;2.904;2023-03-17T17:40:24;5.72;;;1.48;;
61188;SDS011;47054;39.716;2.904;2023-03-17T17:43:09;5.70;;;1.48;;
61188;SDS011;47054;39.716;2.904;2023-03-17T17:45:54;8.15;;;1.50;;
61188;SDS011;47054;39.716;2.904;2023-03-17T17:48:39;5.70;;;1.65;;
61188;SDS011;47054;39.716;2.904;2023-03-17T17:51:24;7.20;;;1.70;;
61188;SDS011;47054;39.716;2.904;2023-03-17T17:54:09;4.75;;;1.23;;
61188;SDS011;47054;39.716;2.904;2023-03-17T17:56:55;4.45;;;1.60;;
61188;SDS011;47054;39.716;2.904;2023-03-17T17:59:40;4.45;;;1.52;;
61188;SDS011;47054;39.716;2.904;2023-03-17T18:02:24;3.33;;;1.40;;
61188;SDS011;47054;39.716;2.904;2023-03-17T18:05:10;7.32;;;1.45;;
61188;SDS011;47054;39.716;2.904;2023-03-17T18:07:55;5.72;;;1.60;;
61188;SDS011;47054;39.716;2.904;2023-03-17T18:10:41;6.07;;;1.75;;
61188;SDS011;47054;39.716;2.904;2023-03-17T18:13:28;3.47;;;1.60;;
61188;SDS011;47054;39.716;2.904;2023-03-17T18:16:13;5.07;;;1.60;;
61188;SDS011;47054;39.716;2.904;2023-03-17T18:18:59;8.00;;;1.45;;
61188;SDS011;47054;39.716;2.904;2023-03-17T18:21:45;8.35;;;1.80;;
61188;SDS011;47054;39.716;2.904;2023-03-17T18:24:30;6.10;;;1.90;;
61188;SDS011;47054;39.716;2.904;2023-03-17T18:27:15;6.78;;;1.75;;